sensor_id;sensor_type;location;lat;lon;timestamp;temperature;humidity
22379;DHT22;11357;49.990;7.370;2023-06-24T00:01:10;18.30;75.70
22379;DHT22;11357;49.990;7.370;2023-06-24T00:03:39;18.40;75.80
22379;DHT22;11357;49.990;7.370;2023-06-24T00:06:04;18.40;75.70
22379;DHT22;11357;49.990;7.370;2023-06-24T00:08:30;18.50;75.70
22379;DHT22;11357;49.990;7.370;2023-06-24T00:11:02;18.50;75.60
22379;DHT22;11357;49.990;7.370;2023-06-24T00:13:28;18.40;75.40
22379;DHT22;11357;49.990;7.370;2023-06-24T00:15:54;18.40;75.40
22379;DHT22;11357;49.990;7.370;2023-06-24T00:18:20;18.40;76.10
22379;DHT22;11357;49.990;7.370;2023-06-24T00:20:50;18.30;75.60
22379;DHT22;11357;49.990;7.370;2023-06-24T00:23:17;18.10;75.90
22379;DHT22;11357;49.990;7.370;2023-06-24T00:25:52;18.00;76.20
22379;DHT22;11357;49.990;7.370;2023-06-24T00:28:20;18.00;76.40
22379;DHT22;11357;49.990;7.370;2023-06-24T00:30:47;18.00;76.60
22379;DHT22;11357;49.990;7.370;2023-06-24T00:33:12;18.10;76.70
22379;DHT22;11357;49.990;7.370;2023-06-24T00:35:39;18.10;76.60
22379;DHT22;11357;49.990;7.370;2023-06-24T00:38:05;18.10;76.60
22379;DHT22;11357;49.990;7.370;2023-06-24T00:40:31;18.10;76.70
22379;DHT22;11357;49.990;7.370;2023-06-24T00:42:58;18.10;76.90
22379;DHT22;11357;49.990;7.370;2023-06-24T00:45:24;18.00;77.00
22379;DHT22;11357;49.990;7.370;2023-06-24T00:47:50;18.00;77.20
22379;DHT22;11357;49.990;7.370;2023-06-24T00:50:17;18.00;77.30
22379;DHT22;11357;49.990;7.370;2023-06-24T00:52:43;18.00;77.40
22379;DHT22;11357;49.990;7.370;2023-06-24T00:55:10;18.00;77.40
22379;DHT22;11357;49.990;7.370;2023-06-24T00:57:39;18.00;77.50
22379;DHT22;11357;49.990;7.370;2023-06-24T01:00:05;18.00;77.70
22379;DHT22;11357;49.990;7.370;2023-06-24T01:02:43;17.90;77.80
22379;DHT22;11357;49.990;7.370;2023-06-24T01:05:10;17.90;78.00
22379;DHT22;11357;49.990;7.370;2023-06-24T01:07:38;17.80;78.20
22379;DHT22;11357;49.990;7.370;2023-06-24T01:10:04;17.80;78.40
22379;DHT22;11357;49.990;7.370;2023-06-24T01:12:38;17.80;78.50
22379;DHT22;11357;49.990;7.370;2023-06-24T01:15:06;17.70;78.80
22379;DHT22;11357;49.990;7.370;2023-06-24T01:18:16;17.60;79.00
22379;DHT22;11357;49.990;7.370;2023-06-24T01:31:43;17.40;80.60
22379;DHT22;11357;49.990;7.370;2023-06-24T01:34:28;17.40;80.80
22379;DHT22;11357;49.990;7.370;2023-06-24T01:39:56;17.40;81.10
22379;DHT22;11357;49.990;7.370;2023-06-24T01:42:22;17.40;81.30
22379;DHT22;11357;49.990;7.370;2023-06-24T01:44:49;17.40;81.10
22379;DHT22;11357;49.990;7.370;2023-06-24T01:47:20;17.40;80.90
22379;DHT22;11357;49.990;7.370;2023-06-24T01:49:49;17.40;80.80
22379;DHT22;11357;49.990;7.370;2023-06-24T01:52:17;17.40;80.70
22379;DHT22;11357;49.990;7.370;2023-06-24T01:54:45;17.40;80.70
22379;DHT22;11357;49.990;7.370;2023-06-24T01:57:12;17.30;80.50
22379;DHT22;11357;49.990;7.370;2023-06-24T01:59:41;17.30;80.30
22379;DHT22;11357;49.990;7.370;2023-06-24T02:02:08;17.30;80.40
22379;DHT22;11357;49.990;7.370;2023-06-24T02:04:35;17.30;80.20
22379;DHT22;11357;49.990;7.370;2023-06-24T02:07:02;17.30;80.10
22379;DHT22;11357;49.990;7.370;2023-06-24T02:09:29;17.40;80.20
22379;DHT22;11357;49.990;7.370;2023-06-24T02:11:57;17.30;80.10
22379;DHT22;11357;49.990;7.370;2023-06-24T02:14:25;17.30;80.40
22379;DHT22;11357;49.990;7.370;2023-06-24T02:16:51;17.30;80.60
22379;DHT22;11357;49.990;7.370;2023-06-24T02:19:22;17.30;80.70
22379;DHT22;11357;49.990;7.370;2023-06-24T02:21:49;17.30;81.00
22379;DHT22;11357;49.990;7.370;2023-06-24T02:24:18;17.30;81.20
22379;DHT22;11357;49.990;7.370;2023-06-24T02:26:45;17.40;81.30
22379;DHT22;11357;49.990;7.370;2023-06-24T02:29:12;17.40;81.50
22379;DHT22;11357;49.990;7.370;2023-06-24T02:31:38;17.40;81.50
22379;DHT22;11357;49.990;7.370;2023-06-24T02:34:05;17.40;81.50
22379;DHT22;11357;49.990;7.370;2023-06-24T02:36:30;17.40;81.60
22379;DHT22;11357;49.990;7.370;2023-06-24T02:38:56;17.30;81.60
22379;DHT22;11357;49.990;7.370;2023-06-24T02:41:22;17.30;81.60
22379;DHT22;11357;49.990;7.370;2023-06-24T02:43:47;17.30;81.40
22379;DHT22;11357;49.990;7.370;2023-06-24T02:46:14;17.30;81.20
22379;DHT22;11357;49.990;7.370;2023-06-24T02:48:41;17.30;81.00
22379;DHT22;11357;49.990;7.370;2023-06-24T02:51:08;17.20;80.80
22379;DHT22;11357;49.990;7.370;2023-06-24T02:53:37;17.20;80.90
22379;DHT22;11357;49.990;7.370;2023-06-24T02:56:04;17.10;80.90
22379;DHT22;11357;49.990;7.370;2023-06-24T02:58:31;17.10;81.00
22379;DHT22;11357;49.990;7.370;2023-06-24T03:01:01;17.10;81.00
22379;DHT22;11357;49.990;7.370;2023-06-24T03:03:29;17.10;80.80
22379;DHT22;11357;49.990;7.370;2023-06-24T03:05:56;17.10;80.70
22379;DHT22;11357;49.990;7.370;2023-06-24T03:08:25;17.10;80.60
22379;DHT22;11357;49.990;7.370;2023-06-24T03:10:54;17.10;80.50
22379;DHT22;11357;49.990;7.370;2023-06-24T03:13:20;17.10;80.50
22379;DHT22;11357;49.990;7.370;2023-06-24T03:15:46;17.00;80.50
22379;DHT22;11357;49.990;7.370;2023-06-24T03:18:11;17.00;80.50
22379;DHT22;11357;49.990;7.370;2023-06-24T03:20:37;17.00;80.40
22379;DHT22;11357;49.990;7.370;2023-06-24T03:23:07;17.00;80.40
22379;DHT22;11357;49.990;7.370;2023-06-24T03:25:34;16.90;80.30
22379;DHT22;11357;49.990;7.370;2023-06-24T03:28:00;16.90;80.40
22379;DHT22;11357;49.990;7.370;2023-06-24T03:30:27;16.80;80.60
22379;DHT22;11357;49.990;7.370;2023-06-24T03:32:53;16.80;80.70
22379;DHT22;11357;49.990;7.370;2023-06-24T03:35:18;16.70;81.00
22379;DHT22;11357;49.990;7.370;2023-06-24T03:37:44;16.70;81.20
22379;DHT22;11357;49.990;7.370;2023-06-24T03:40:10;16.70;81.20
22379;DHT22;11357;49.990;7.370;2023-06-24T03:42:36;16.70;81.20
22379;DHT22;11357;49.990;7.370;2023-06-24T03:45:04;16.70;82.00
22379;DHT22;11357;49.990;7.370;2023-06-24T03:47:30;16.70;81.70
22379;DHT22;11357;49.990;7.370;2023-06-24T03:49:56;16.60;81.80
22379;DHT22;11357;49.990;7.370;2023-06-24T03:52:22;16.70;82.10
22379;DHT22;11357;49.990;7.370;2023-06-24T03:54:47;16.60;82.20
22379;DHT22;11357;49.990;7.370;2023-06-24T03:57:13;16.60;82.50
22379;DHT22;11357;49.990;7.370;2023-06-24T03:59:39;16.60;82.80
22379;DHT22;11357;49.990;7.370;2023-06-24T04:02:07;16.60;83.20
22379;DHT22;11357;49.990;7.370;2023-06-24T04:04:37;16.60;83.90
22379;DHT22;11357;49.990;7.370;2023-06-24T04:07:02;16.60;84.90
22379;DHT22;11357;49.990;7.370;2023-06-24T04:09:33;16.60;84.50
22379;DHT22;11357;49.990;7.370;2023-06-24T04:11:59;16.70;84.70
22379;DHT22;11357;49.990;7.370;2023-06-24T04:14:24;16.70;84.80
22379;DHT22;11357;49.990;7.370;2023-06-24T04:16:50;16.70;84.80
22379;DHT22;11357;49.990;7.370;2023-06-24T04:19:16;16.80;85.00
22379;DHT22;11357;49.990;7.370;2023-06-24T04:21:42;16.80;85.20
22379;DHT22;11357;49.990;7.370;2023-06-24T04:24:07;16.80;85.40
22379;DHT22;11357;49.990;7.370;2023-06-24T04:26:33;16.90;85.50
22379;DHT22;11357;49.990;7.370;2023-06-24T04:28:59;16.90;85.60
22379;DHT22;11357;49.990;7.370;2023-06-24T04:31:24;17.00;85.70
22379;DHT22;11357;49.990;7.370;2023-06-24T04:33:51;17.00;85.80
22379;DHT22;11357;49.990;7.370;2023-06-24T04:36:16;17.00;86.10
22379;DHT22;11357;49.990;7.370;2023-06-24T04:38:42;17.10;86.50
22379;DHT22;11357;49.990;7.370;2023-06-24T04:41:08;17.20;86.90
22379;DHT22;11357;49.990;7.370;2023-06-24T04:43:34;17.40;87.20
22379;DHT22;11357;49.990;7.370;2023-06-24T04:46:01;17.60;87.20
22379;DHT22;11357;49.990;7.370;2023-06-24T04:48:27;17.80;87.10
22379;DHT22;11357;49.990;7.370;2023-06-24T04:50:53;18.10;87.00
22379;DHT22;11357;49.990;7.370;2023-06-24T04:53:23;18.30;86.70
22379;DHT22;11357;49.990;7.370;2023-06-24T04:55:49;18.50;86.20
22379;DHT22;11357;49.990;7.370;2023-06-24T04:58:14;18.60;85.90
22379;DHT22;11357;49.990;7.370;2023-06-24T05:00:40;18.80;85.60
22379;DHT22;11357;49.990;7.370;2023-06-24T05:03:06;18.90;85.40
22379;DHT22;11357;49.990;7.370;2023-06-24T05:05:31;19.10;85.10
22379;DHT22;11357;49.990;7.370;2023-06-24T05:07:57;19.30;84.90
22379;DHT22;11357;49.990;7.370;2023-06-24T05:10:23;19.40;84.60
22379;DHT22;11357;49.990;7.370;2023-06-24T05:12:48;19.60;84.30
22379;DHT22;11357;49.990;7.370;2023-06-24T05:15:14;19.80;83.90
22379;DHT22;11357;49.990;7.370;2023-06-24T05:17:40;19.80;83.70
22379;DHT22;11357;49.990;7.370;2023-06-24T05:20:06;19.80;83.80
22379;DHT22;11357;49.990;7.370;2023-06-24T05:22:32;20.00;84.20
22379;DHT22;11357;49.990;7.370;2023-06-24T05:24:57;20.20;84.10
22379;DHT22;11357;49.990;7.370;2023-06-24T05:27:23;20.40;83.70
22379;DHT22;11357;49.990;7.370;2023-06-24T05:29:49;20.60;83.40
22379;DHT22;11357;49.990;7.370;2023-06-24T05:32:15;20.80;83.10
22379;DHT22;11357;49.990;7.370;2023-06-24T05:34:43;21.00;82.80
22379;DHT22;11357;49.990;7.370;2023-06-24T05:37:08;21.20;82.40
22379;DHT22;11357;49.990;7.370;2023-06-24T05:39:34;21.40;81.90
22379;DHT22;11357;49.990;7.370;2023-06-24T05:42:00;21.60;81.40
22379;DHT22;11357;49.990;7.370;2023-06-24T05:44:25;21.70;81.00
22379;DHT22;11357;49.990;7.370;2023-06-24T05:46:51;21.90;80.70
22379;DHT22;11357;49.990;7.370;2023-06-24T05:49:17;22.00;79.90
22379;DHT22;11357;49.990;7.370;2023-06-24T05:51:43;22.20;79.20
22379;DHT22;11357;49.990;7.370;2023-06-24T05:54:08;22.40;79.20
22379;DHT22;11357;49.990;7.370;2023-06-24T05:56:34;22.50;78.80
22379;DHT22;11357;49.990;7.370;2023-06-24T05:59:01;22.70;78.50
22379;DHT22;11357;49.990;7.370;2023-06-24T06:01:27;22.80;77.50
22379;DHT22;11357;49.990;7.370;2023-06-24T06:03:53;23.00;77.10
22379;DHT22;11357;49.990;7.370;2023-06-24T06:06:18;23.10;76.70
22379;DHT22;11357;49.990;7.370;2023-06-24T06:08:44;23.30;76.90
22379;DHT22;11357;49.990;7.370;2023-06-24T06:11:09;23.50;76.00
22379;DHT22;11357;49.990;7.370;2023-06-24T06:13:35;23.60;74.90
22379;DHT22;11357;49.990;7.370;2023-06-24T06:16:01;23.70;73.70
22379;DHT22;11357;49.990;7.370;2023-06-24T06:18:26;23.80;73.70
22379;DHT22;11357;49.990;7.370;2023-06-24T06:20:52;24.00;73.10
22379;DHT22;11357;49.990;7.370;2023-06-24T06:23:18;24.10;72.10
22379;DHT22;11357;49.990;7.370;2023-06-24T06:25:43;24.00;71.80
22379;DHT22;11357;49.990;7.370;2023-06-24T06:28:09;24.10;72.00
22379;DHT22;11357;49.990;7.370;2023-06-24T06:30:35;24.30;72.00
22379;DHT22;11357;49.990;7.370;2023-06-24T06:33:00;24.40;71.60
22379;DHT22;11357;49.990;7.370;2023-06-24T06:35:26;24.50;71.70
22379;DHT22;11357;49.990;7.370;2023-06-24T06:37:52;24.70;71.40
22379;DHT22;11357;49.990;7.370;2023-06-24T06:40:19;24.90;70.90
22379;DHT22;11357;49.990;7.370;2023-06-24T06:42:45;25.20;70.30
22379;DHT22;11357;49.990;7.370;2023-06-24T06:45:11;25.50;69.60
22379;DHT22;11357;49.990;7.370;2023-06-24T06:47:37;25.80;69.10
22379;DHT22;11357;49.990;7.370;2023-06-24T06:50:02;26.00;68.50
22379;DHT22;11357;49.990;7.370;2023-06-24T06:52:28;26.30;68.40
22379;DHT22;11357;49.990;7.370;2023-06-24T06:54:54;26.50;68.10
22379;DHT22;11357;49.990;7.370;2023-06-24T06:57:20;26.80;67.40
22379;DHT22;11357;49.990;7.370;2023-06-24T06:59:45;27.10;66.70
22379;DHT22;11357;49.990;7.370;2023-06-24T07:02:11;27.30;65.80
22379;DHT22;11357;49.990;7.370;2023-06-24T07:04:37;27.50;65.00
22379;DHT22;11357;49.990;7.370;2023-06-24T07:07:03;27.70;64.20
22379;DHT22;11357;49.990;7.370;2023-06-24T07:09:28;28.00;63.00
22379;DHT22;11357;49.990;7.370;2023-06-24T07:11:54;28.20;62.50
22379;DHT22;11357;49.990;7.370;2023-06-24T07:14:20;28.50;61.80
22379;DHT22;11357;49.990;7.370;2023-06-24T07:16:45;28.70;60.60
22379;DHT22;11357;49.990;7.370;2023-06-24T07:19:11;29.00;59.60
22379;DHT22;11357;49.990;7.370;2023-06-24T07:21:37;29.30;58.10
22379;DHT22;11357;49.990;7.370;2023-06-24T07:24:04;29.60;57.10
22379;DHT22;11357;49.990;7.370;2023-06-24T07:26:29;29.80;56.40
22379;DHT22;11357;49.990;7.370;2023-06-24T07:28:57;30.00;54.60
22379;DHT22;11357;49.990;7.370;2023-06-24T07:31:23;30.00;54.10
22379;DHT22;11357;49.990;7.370;2023-06-24T07:33:49;30.10;53.80
22379;DHT22;11357;49.990;7.370;2023-06-24T07:36:15;30.40;53.40
22379;DHT22;11357;49.990;7.370;2023-06-24T07:38:40;30.60;52.00
22379;DHT22;11357;49.990;7.370;2023-06-24T07:41:06;30.60;51.60
22379;DHT22;11357;49.990;7.370;2023-06-24T07:43:32;30.90;51.50
22379;DHT22;11357;49.990;7.370;2023-06-24T07:45:57;31.20;50.70
22379;DHT22;11357;49.990;7.370;2023-06-24T07:48:23;31.50;49.90
22379;DHT22;11357;49.990;7.370;2023-06-24T07:50:50;31.80;49.10
22379;DHT22;11357;49.990;7.370;2023-06-24T07:53:15;32.00;48.40
22379;DHT22;11357;49.990;7.370;2023-06-24T07:55:41;32.10;48.10
22379;DHT22;11357;49.990;7.370;2023-06-24T07:58:07;32.30;48.10
22379;DHT22;11357;49.990;7.370;2023-06-24T08:00:33;32.40;47.80
22379;DHT22;11357;49.990;7.370;2023-06-24T08:02:59;32.50;47.00
22379;DHT22;11357;49.990;7.370;2023-06-24T08:05:25;32.80;46.80
22379;DHT22;11357;49.990;7.370;2023-06-24T08:07:51;33.00;46.20
22379;DHT22;11357;49.990;7.370;2023-06-24T08:10:17;33.30;45.60
22379;DHT22;11357;49.990;7.370;2023-06-24T08:12:43;33.40;44.80
22379;DHT22;11357;49.990;7.370;2023-06-24T08:15:09;33.60;44.70
22379;DHT22;11357;49.990;7.370;2023-06-24T08:17:35;33.70;44.30
22379;DHT22;11357;49.990;7.370;2023-06-24T08:20:02;34.00;43.80
22379;DHT22;11357;49.990;7.370;2023-06-24T08:22:28;34.30;43.30
22379;DHT22;11357;49.990;7.370;2023-06-24T08:24:54;34.50;42.50
22379;DHT22;11357;49.990;7.370;2023-06-24T08:27:19;34.70;42.40
22379;DHT22;11357;49.990;7.370;2023-06-24T08:29:45;34.90;42.30
22379;DHT22;11357;49.990;7.370;2023-06-24T08:32:11;35.10;41.80
22379;DHT22;11357;49.990;7.370;2023-06-24T08:34:36;35.30;40.60
22379;DHT22;11357;49.990;7.370;2023-06-24T08:37:02;35.00;39.30
22379;DHT22;11357;49.990;7.370;2023-06-24T08:39:28;34.20;39.60
22379;DHT22;11357;49.990;7.370;2023-06-24T08:41:53;33.60;40.40
22379;DHT22;11357;49.990;7.370;2023-06-24T08:44:19;33.20;41.90
22379;DHT22;11357;49.990;7.370;2023-06-24T08:46:45;33.30;42.70
22379;DHT22;11357;49.990;7.370;2023-06-24T08:52:11;34.50;41.90
22379;DHT22;11357;49.990;7.370;2023-06-24T08:54:40;35.10;41.40
22379;DHT22;11357;49.990;7.370;2023-06-24T08:57:06;35.60;40.10
22379;DHT22;11357;49.990;7.370;2023-06-24T08:59:36;35.90;39.00
22379;DHT22;11357;49.990;7.370;2023-06-24T09:02:03;36.20;38.20
22379;DHT22;11357;49.990;7.370;2023-06-24T09:04:29;36.30;37.60
22379;DHT22;11357;49.990;7.370;2023-06-24T09:06:54;36.40;38.20
22379;DHT22;11357;49.990;7.370;2023-06-24T09:09:21;36.40;37.60
22379;DHT22;11357;49.990;7.370;2023-06-24T09:11:59;36.20;37.10
22379;DHT22;11357;49.990;7.370;2023-06-24T09:14:29;36.00;37.30
22379;DHT22;11357;49.990;7.370;2023-06-24T09:16:57;36.00;37.20
22379;DHT22;11357;49.990;7.370;2023-06-24T09:19:25;35.90;37.80
22379;DHT22;11357;49.990;7.370;2023-06-24T09:21:55;35.50;38.60
22379;DHT22;11357;49.990;7.370;2023-06-24T09:24:21;35.20;39.40
22379;DHT22;11357;49.990;7.370;2023-06-24T09:26:47;35.00;39.40
22379;DHT22;11357;49.990;7.370;2023-06-24T09:29:13;34.60;39.50
22379;DHT22;11357;49.990;7.370;2023-06-24T09:31:49;34.20;39.80
22379;DHT22;11357;49.990;7.370;2023-06-24T09:34:17;33.80;41.50
22379;DHT22;11357;49.990;7.370;2023-06-24T09:36:45;33.70;41.40
22379;DHT22;11357;49.990;7.370;2023-06-24T09:39:11;33.90;41.00
22379;DHT22;11357;49.990;7.370;2023-06-24T09:41:40;34.30;41.20
22379;DHT22;11357;49.990;7.370;2023-06-24T09:44:13;34.90;41.00
22379;DHT22;11357;49.990;7.370;2023-06-24T09:46:39;35.20;38.80
22379;DHT22;11357;49.990;7.370;2023-06-24T09:49:06;35.30;38.30
22379;DHT22;11357;49.990;7.370;2023-06-24T09:51:38;35.50;38.10
22379;DHT22;11357;49.990;7.370;2023-06-24T09:54:06;35.80;37.50
22379;DHT22;11357;49.990;7.370;2023-06-24T09:56:35;36.10;38.00
22379;DHT22;11357;49.990;7.370;2023-06-24T09:59:06;36.40;37.40
22379;DHT22;11357;49.990;7.370;2023-06-24T10:01:43;36.40;38.00
22379;DHT22;11357;49.990;7.370;2023-06-24T10:04:18;36.40;38.20
22379;DHT22;11357;49.990;7.370;2023-06-24T10:06:45;36.40;38.30
22379;DHT22;11357;49.990;7.370;2023-06-24T10:09:11;36.70;37.90
22379;DHT22;11357;49.990;7.370;2023-06-24T10:11:39;37.20;37.10
22379;DHT22;11357;49.990;7.370;2023-06-24T10:14:05;37.60;37.10
22379;DHT22;11357;49.990;7.370;2023-06-24T10:16:31;38.20;36.50
22379;DHT22;11357;49.990;7.370;2023-06-24T10:19:01;38.70;35.50
22379;DHT22;11357;49.990;7.370;2023-06-24T10:21:47;39.20;35.00
22379;DHT22;11357;49.990;7.370;2023-06-24T10:24:13;39.60;34.10
22379;DHT22;11357;49.990;7.370;2023-06-24T10:26:40;39.80;33.50
22379;DHT22;11357;49.990;7.370;2023-06-24T10:42:33;40.40;30.60
22379;DHT22;11357;49.990;7.370;2023-06-24T10:47:37;39.10;33.00
22379;DHT22;11357;49.990;7.370;2023-06-24T10:50:04;39.40;32.80
22379;DHT22;11357;49.990;7.370;2023-06-24T10:52:30;39.60;31.30
22379;DHT22;11357;49.990;7.370;2023-06-24T10:54:57;39.20;31.10
22379;DHT22;11357;49.990;7.370;2023-06-24T10:57:27;39.00;30.80
22379;DHT22;11357;49.990;7.370;2023-06-24T10:59:55;38.60;31.00
22379;DHT22;11357;49.990;7.370;2023-06-24T11:02:22;38.20;31.30
22379;DHT22;11357;49.990;7.370;2023-06-24T11:04:50;38.00;31.90
22379;DHT22;11357;49.990;7.370;2023-06-24T11:07:21;37.90;32.00
22379;DHT22;11357;49.990;7.370;2023-06-24T11:12:16;37.20;32.50
22379;DHT22;11357;49.990;7.370;2023-06-24T11:14:42;37.30;33.00
22379;DHT22;11357;49.990;7.370;2023-06-24T11:17:07;37.50;33.20
22379;DHT22;11357;49.990;7.370;2023-06-24T11:19:34;37.90;32.90
22379;DHT22;11357;49.990;7.370;2023-06-24T11:22:05;38.50;32.70
22379;DHT22;11357;49.990;7.370;2023-06-24T11:24:31;38.70;31.50
22379;DHT22;11357;49.990;7.370;2023-06-24T11:26:57;39.20;31.20
22379;DHT22;11357;49.990;7.370;2023-06-24T11:29:23;39.60;30.60
22379;DHT22;11357;49.990;7.370;2023-06-24T11:31:50;40.00;30.30
22379;DHT22;11357;49.990;7.370;2023-06-24T11:34:16;39.90;30.00
22379;DHT22;11357;49.990;7.370;2023-06-24T11:36:42;39.50;30.00
22379;DHT22;11357;49.990;7.370;2023-06-24T11:39:07;39.10;30.50
22379;DHT22;11357;49.990;7.370;2023-06-24T11:41:33;39.40;30.70
22379;DHT22;11357;49.990;7.370;2023-06-24T11:43:59;39.80;30.30
22379;DHT22;11357;49.990;7.370;2023-06-24T11:46:29;40.30;30.20
22379;DHT22;11357;49.990;7.370;2023-06-24T11:49:06;40.70;29.70
22379;DHT22;11357;49.990;7.370;2023-06-24T11:51:32;41.20;29.40
22379;DHT22;11357;49.990;7.370;2023-06-24T11:54:05;41.60;28.90
22379;DHT22;11357;49.990;7.370;2023-06-24T11:59:00;41.90;28.30
22379;DHT22;11357;49.990;7.370;2023-06-24T12:01:35;41.60;27.70
22379;DHT22;11357;49.990;7.370;2023-06-24T12:04:12;41.10;28.60
22379;DHT22;11357;49.990;7.370;2023-06-24T12:06:42;41.20;29.10
22379;DHT22;11357;49.990;7.370;2023-06-24T12:09:11;41.60;28.90
22379;DHT22;11357;49.990;7.370;2023-06-24T12:11:38;42.10;28.80
22379;DHT22;11357;49.990;7.370;2023-06-24T12:14:05;42.50;28.10
22379;DHT22;11357;49.990;7.370;2023-06-24T12:16:31;42.80;27.70
22379;DHT22;11357;49.990;7.370;2023-06-24T12:18:57;42.40;27.40
22379;DHT22;11357;49.990;7.370;2023-06-24T12:21:22;41.50;27.50
22379;DHT22;11357;49.990;7.370;2023-06-24T12:23:48;40.10;27.90
22379;DHT22;11357;49.990;7.370;2023-06-24T12:26:13;38.70;28.80
22379;DHT22;11357;49.990;7.370;2023-06-24T12:28:39;37.90;29.60
22379;DHT22;11357;49.990;7.370;2023-06-24T12:31:05;37.10;30.00
22379;DHT22;11357;49.990;7.370;2023-06-24T12:33:31;36.70;30.40
22379;DHT22;11357;49.990;7.370;2023-06-24T12:35:56;36.80;30.80
22379;DHT22;11357;49.990;7.370;2023-06-24T12:38:22;36.60;31.10
22379;DHT22;11357;49.990;7.370;2023-06-24T12:40:48;36.60;32.10
22379;DHT22;11357;49.990;7.370;2023-06-24T12:43:14;36.70;32.10
22379;DHT22;11357;49.990;7.370;2023-06-24T12:45:40;37.20;31.70
22379;DHT22;11357;49.990;7.370;2023-06-24T12:48:09;37.50;30.40
22379;DHT22;11357;49.990;7.370;2023-06-24T12:50:35;37.50;30.00
22379;DHT22;11357;49.990;7.370;2023-06-24T12:53:01;37.30;30.00
22379;DHT22;11357;49.990;7.370;2023-06-24T12:55:27;37.50;30.20
22379;DHT22;11357;49.990;7.370;2023-06-24T12:57:53;37.90;30.20
22379;DHT22;11357;49.990;7.370;2023-06-24T13:00:22;38.40;29.80
22379;DHT22;11357;49.990;7.370;2023-06-24T13:02:49;38.90;29.50
22379;DHT22;11357;49.990;7.370;2023-06-24T13:05:15;39.30;28.70
22379;DHT22;11357;49.990;7.370;2023-06-24T13:07:41;38.80;28.30
22379;DHT22;11357;49.990;7.370;2023-06-24T13:10:07;38.20;29.30
22379;DHT22;11357;49.990;7.370;2023-06-24T13:12:34;37.40;29.20
22379;DHT22;11357;49.990;7.370;2023-06-24T13:14:59;36.80;29.70
22379;DHT22;11357;49.990;7.370;2023-06-24T13:17:25;36.80;30.30
22379;DHT22;11357;49.990;7.370;2023-06-24T13:19:51;36.90;30.00
22379;DHT22;11357;49.990;7.370;2023-06-24T13:22:18;37.00;30.00
22379;DHT22;11357;49.990;7.370;2023-06-24T13:24:44;37.30;29.80
22379;DHT22;11357;49.990;7.370;2023-06-24T13:27:10;37.70;30.00
22379;DHT22;11357;49.990;7.370;2023-06-24T13:29:36;38.00;29.30
22379;DHT22;11357;49.990;7.370;2023-06-24T13:32:02;37.70;28.90
22379;DHT22;11357;49.990;7.370;2023-06-24T13:34:28;37.40;29.50
22379;DHT22;11357;49.990;7.370;2023-06-24T13:36:54;37.60;30.00
22379;DHT22;11357;49.990;7.370;2023-06-24T13:39:20;38.20;30.50
22379;DHT22;11357;49.990;7.370;2023-06-24T13:41:49;38.90;30.10
22379;DHT22;11357;49.990;7.370;2023-06-24T13:44:15;39.50;29.60
22379;DHT22;11357;49.990;7.370;2023-06-24T13:46:41;40.00;29.50
22379;DHT22;11357;49.990;7.370;2023-06-24T13:49:07;40.10;28.90
22379;DHT22;11357;49.990;7.370;2023-06-24T13:51:33;40.00;28.00
22379;DHT22;11357;49.990;7.370;2023-06-24T13:53:58;39.00;28.00
22379;DHT22;11357;49.990;7.370;2023-06-24T13:56:25;38.20;28.40
22379;DHT22;11357;49.990;7.370;2023-06-24T13:58:52;37.60;29.70
22379;DHT22;11357;49.990;7.370;2023-06-24T14:01:17;37.30;30.20
22379;DHT22;11357;49.990;7.370;2023-06-24T14:03:43;37.10;30.30
22379;DHT22;11357;49.990;7.370;2023-06-24T14:06:10;36.90;30.40
22379;DHT22;11357;49.990;7.370;2023-06-24T14:08:35;36.90;31.00
22379;DHT22;11357;49.990;7.370;2023-06-24T14:11:02;37.20;31.30
22379;DHT22;11357;49.990;7.370;2023-06-24T14:13:28;37.50;31.10
22379;DHT22;11357;49.990;7.370;2023-06-24T14:15:55;37.70;31.20
22379;DHT22;11357;49.990;7.370;2023-06-24T14:18:21;37.70;31.50
22379;DHT22;11357;49.990;7.370;2023-06-24T14:20:46;37.60;31.90
22379;DHT22;11357;49.990;7.370;2023-06-24T14:23:12;37.60;32.30
22379;DHT22;11357;49.990;7.370;2023-06-24T14:25:38;37.50;31.90
22379;DHT22;11357;49.990;7.370;2023-06-24T14:28:04;37.50;31.30
22379;DHT22;11357;49.990;7.370;2023-06-24T14:30:33;37.30;30.70
22379;DHT22;11357;49.990;7.370;2023-06-24T14:33:00;37.10;30.80
22379;DHT22;11357;49.990;7.370;2023-06-24T14:35:26;36.70;30.90
22379;DHT22;11357;49.990;7.370;2023-06-24T14:37:52;36.30;31.80
22379;DHT22;11357;49.990;7.370;2023-06-24T14:40:18;36.00;32.50
22379;DHT22;11357;49.990;7.370;2023-06-24T14:42:46;35.80;32.60
22379;DHT22;11357;49.990;7.370;2023-06-24T14:45:12;35.80;33.00
22379;DHT22;11357;49.990;7.370;2023-06-24T14:47:38;35.80;33.30
22379;DHT22;11357;49.990;7.370;2023-06-24T14:50:04;35.90;33.00
22379;DHT22;11357;49.990;7.370;2023-06-24T14:52:29;35.90;33.00
22379;DHT22;11357;49.990;7.370;2023-06-24T14:54:55;36.00;32.30
22379;DHT22;11357;49.990;7.370;2023-06-24T14:57:21;35.80;32.50
22379;DHT22;11357;49.990;7.370;2023-06-24T14:59:49;35.50;32.70
22379;DHT22;11357;49.990;7.370;2023-06-24T15:02:14;35.30;32.90
22379;DHT22;11357;49.990;7.370;2023-06-24T15:04:40;34.80;33.10
22379;DHT22;11357;49.990;7.370;2023-06-24T15:07:06;34.50;33.80
22379;DHT22;11357;49.990;7.370;2023-06-24T15:09:32;34.30;33.80
22379;DHT22;11357;49.990;7.370;2023-06-24T15:11:59;33.90;34.00
22379;DHT22;11357;49.990;7.370;2023-06-24T15:14:25;33.80;34.50
22379;DHT22;11357;49.990;7.370;2023-06-24T15:16:51;33.80;34.30
22379;DHT22;11357;49.990;7.370;2023-06-24T15:19:19;33.70;34.30
22379;DHT22;11357;49.990;7.370;2023-06-24T15:21:45;33.60;34.10
22379;DHT22;11357;49.990;7.370;2023-06-24T15:24:10;33.40;34.00
22379;DHT22;11357;49.990;7.370;2023-06-24T15:26:36;33.30;34.20
22379;DHT22;11357;49.990;7.370;2023-06-24T15:29:02;33.30;34.80
22379;DHT22;11357;49.990;7.370;2023-06-24T15:31:27;33.30;34.50
22379;DHT22;11357;49.990;7.370;2023-06-24T15:33:53;33.20;34.80
22379;DHT22;11357;49.990;7.370;2023-06-24T15:36:19;33.10;35.10
22379;DHT22;11357;49.990;7.370;2023-06-24T15:38:47;33.00;35.40
22379;DHT22;11357;49.990;7.370;2023-06-24T15:41:13;32.90;35.80
22379;DHT22;11357;49.990;7.370;2023-06-24T15:43:40;32.90;36.40
22379;DHT22;11357;49.990;7.370;2023-06-24T15:46:05;32.70;36.80
22379;DHT22;11357;49.990;7.370;2023-06-24T15:48:31;32.50;36.50
22379;DHT22;11357;49.990;7.370;2023-06-24T15:50:57;32.40;36.70
22379;DHT22;11357;49.990;7.370;2023-06-24T15:53:25;32.40;36.60
22379;DHT22;11357;49.990;7.370;2023-06-24T15:55:51;32.40;36.80
22379;DHT22;11357;49.990;7.370;2023-06-24T15:58:16;32.40;36.80
22379;DHT22;11357;49.990;7.370;2023-06-24T16:00:42;32.40;36.90
22379;DHT22;11357;49.990;7.370;2023-06-24T16:03:08;32.50;37.00
22379;DHT22;11357;49.990;7.370;2023-06-24T16:05:33;32.70;37.10